sensor_id;sensor_type;location;lat;lon;timestamp;pressure;altitude;pressure_sealevel;temperature;humidity
21980;BME280;11154;48.558;9.234;2023-04-22T00:00:41;96886.41;;;15.34;74.10
21980;BME280;11154;48.558;9.234;2023-04-22T00:02:43;96887.66;;;15.31;73.67
21980;BME280;11154;48.558;9.234;2023-04-22T00:04:44;96890.09;;;15.33;74.16
21980;BME280;11154;48.558;9.234;2023-04-22T00:06:46;96883.09;;;15.32;73.14
21980;BME280;11154;48.558;9.234;2023-04-22T00:08:48;96882.69;;;15.35;73.31
21980;BME280;11154;48.558;9.234;2023-04-22T00:10:50;96883.09;;;15.32;74.33
21980;BME280;11154;48.558;9.234;2023-04-22T00:12:53;96884.75;;;15.33;74.47
21980;BME280;11154;48.558;9.234;2023-04-22T00:14:55;96883.50;;;15.29;74.30
21980;BME280;11154;48.558;9.234;2023-04-22T00:16:56;96884.56;;;15.28;74.88
21980;BME280;11154;48.558;9.234;2023-04-22T00:18:58;96880.00;;;15.28;75.47
21980;BME280;11154;48.558;9.234;2023-04-22T00:21:00;96886.81;;;15.24;75.51
21980;BME280;11154;48.558;9.234;2023-04-22T00:23:01;96882.47;;;15.23;76.28
21980;BME280;11154;48.558;9.234;2023-04-22T00:25:03;96884.72;;;15.20;76.49
21980;BME280;11154;48.558;9.234;2023-04-22T00:27:05;96882.25;;;15.18;76.56
21980;BME280;11154;48.558;9.234;2023-04-22T00:29:08;96885.94;;;15.17;76.98
21980;BME280;11154;48.558;9.234;2023-04-22T00:31:10;96880.19;;;15.14;77.08
21980;BME280;11154;48.558;9.234;2023-04-22T00:33:11;96887.59;;;15.12;77.11
21980;BME280;11154;48.558;9.234;2023-04-22T00:35:13;96891.28;;;15.11;77.07
21980;BME280;11154;48.558;9.234;2023-04-22T00:37:15;96888.00;;;15.09;76.90
21980;BME280;11154;48.558;9.234;2023-04-22T00:39:17;96884.50;;;15.09;76.03
21980;BME280;11154;48.558;9.234;2023-04-22T00:41:18;96885.50;;;15.08;76.07
21980;BME280;11154;48.558;9.234;2023-04-22T00:43:20;96888.19;;;15.08;75.86
21980;BME280;11154;48.558;9.234;2023-04-22T00:45:25;96888.81;;;15.10;75.29
21980;BME280;11154;48.558;9.234;2023-04-22T00:47:28;96881.19;;;15.07;75.18
21980;BME280;11154;48.558;9.234;2023-04-22T00:49:31;96888.41;;;15.06;75.82
21980;BME280;11154;48.558;9.234;2023-04-22T00:51:34;96892.09;;;15.05;76.22
21980;BME280;11154;48.558;9.234;2023-04-22T00:53:36;96890.44;;;15.04;75.60
21980;BME280;11154;48.558;9.234;2023-04-22T00:55:37;96883.25;;;15.05;75.67
21980;BME280;11154;48.558;9.234;2023-04-22T00:57:39;96880.16;;;15.01;75.34
21980;BME280;11154;48.558;9.234;2023-04-22T00:59:41;96879.13;;;14.96;75.11
21980;BME280;11154;48.558;9.234;2023-04-22T01:01:46;96879.53;;;14.93;75.68
21980;BME280;11154;48.558;9.234;2023-04-22T01:03:48;96871.69;;;14.91;75.45
21980;BME280;11154;48.558;9.234;2023-04-22T01:05:51;96874.38;;;14.85;75.66
21980;BME280;11154;48.558;9.234;2023-04-22T01:07:53;96876.41;;;14.83;75.55
21980;BME280;11154;48.558;9.234;2023-04-22T01:09:55;96880.97;;;14.82;75.87
21980;BME280;11154;48.558;9.234;2023-04-22T01:11:57;96873.53;;;14.84;75.79
21980;BME280;11154;48.558;9.234;2023-04-22T01:13:58;96872.09;;;14.82;75.48
21980;BME280;11154;48.558;9.234;2023-04-22T01:16:01;96873.94;;;14.81;75.21
21980;BME280;11154;48.558;9.234;2023-04-22T01:18:04;96872.50;;;14.79;76.33
21980;BME280;11154;48.558;9.234;2023-04-22T01:20:07;96871.06;;;14.83;76.67
21980;BME280;11154;48.558;9.234;2023-04-22T01:22:12;96873.13;;;14.81;76.65
21980;BME280;11154;48.558;9.234;2023-04-22T01:24:15;96873.94;;;14.81;76.54
21980;BME280;11154;48.558;9.234;2023-04-22T01:26:17;96879.31;;;14.81;76.13
21980;BME280;11154;48.558;9.234;2023-04-22T01:28:19;96880.97;;;14.82;76.23
21980;BME280;11154;48.558;9.234;2023-04-22T01:30:21;96880.13;;;14.82;76.10
21980;BME280;11154;48.558;9.234;2023-04-22T01:32:22;96882.63;;;14.83;75.95
21980;BME280;11154;48.558;9.234;2023-04-22T01:34:24;96877.44;;;14.82;76.17
21980;BME280;11154;48.558;9.234;2023-04-22T01:36:26;96879.31;;;14.81;75.94
21980;BME280;11154;48.558;9.234;2023-04-22T01:38:28;96876.63;;;14.81;76.27
21980;BME280;11154;48.558;9.234;2023-04-22T01:40:34;96876.63;;;14.81;76.24
21980;BME280;11154;48.558;9.234;2023-04-22T01:42:36;96872.50;;;14.79;75.88
21980;BME280;11154;48.558;9.234;2023-04-22T01:44:37;96882.38;;;14.78;75.25
21980;BME280;11154;48.558;9.234;2023-04-22T01:46:39;96880.97;;;14.82;75.67
21980;BME280;11154;48.558;9.234;2023-04-22T01:48:41;96866.56;;;14.83;74.46
21980;BME280;11154;48.558;9.234;2023-04-22T01:50:49;96871.47;;;14.86;73.66
21980;BME280;11154;48.558;9.234;2023-04-22T01:52:51;96870.47;;;14.87;73.92
21980;BME280;11154;48.558;9.234;2023-04-22T01:54:53;96875.22;;;14.92;74.35
21980;BME280;11154;48.558;9.234;2023-04-22T01:56:56;96887.56;;;14.93;74.76
21980;BME280;11154;48.558;9.234;2023-04-22T01:58:58;96882.22;;;14.93;75.03
21980;BME280;11154;48.558;9.234;2023-04-22T02:01:00;96894.59;;;14.94;74.78
21980;BME280;11154;48.558;9.234;2023-04-22T02:03:02;96892.09;;;14.92;74.97
21980;BME280;11154;48.558;9.234;2023-04-22T02:05:05;96893.75;;;14.87;75.17
21980;BME280;11154;48.558;9.234;2023-04-22T02:07:06;96888.56;;;14.79;76.01
21980;BME280;11154;48.558;9.234;2023-04-22T02:09:08;96895.53;;;14.73;76.58
21980;BME280;11154;48.558;9.234;2023-04-22T02:11:10;96891.44;;;14.71;77.28
21980;BME280;11154;48.558;9.234;2023-04-22T02:13:13;96882.97;;;14.67;76.97
21980;BME280;11154;48.558;9.234;2023-04-22T02:15:15;96885.88;;;14.66;77.11
21980;BME280;11154;48.558;9.234;2023-04-22T02:17:16;96886.88;;;14.65;77.10
21980;BME280;11154;48.558;9.234;2023-04-22T02:19:18;96889.56;;;14.65;76.61
21980;BME280;11154;48.558;9.234;2023-04-22T02:21:20;96883.56;;;14.63;76.61
21980;BME280;11154;48.558;9.234;2023-04-22T02:23:22;96884.63;;;14.62;76.77
21980;BME280;11154;48.558;9.234;2023-04-22T02:25:24;96886.25;;;14.63;76.77
21980;BME280;11154;48.558;9.234;2023-04-22T02:27:26;96890.78;;;14.62;77.10
21980;BME280;11154;48.558;9.234;2023-04-22T02:29:29;96895.94;;;14.57;76.94
21980;BME280;11154;48.558;9.234;2023-04-22T02:31:31;96908.88;;;14.60;77.44
21980;BME280;11154;48.558;9.234;2023-04-22T02:33:33;96902.09;;;14.58;77.88
21980;BME280;11154;48.558;9.234;2023-04-22T02:35:35;96901.28;;;14.57;77.65
21980;BME280;11154;48.558;9.234;2023-04-22T02:37:37;96912.16;;;14.56;76.92
21980;BME280;11154;48.558;9.234;2023-04-22T02:39:39;96916.91;;;14.54;77.57
21980;BME280;11154;48.558;9.234;2023-04-22T02:41:41;96919.59;;;14.54;77.83
21980;BME280;11154;48.558;9.234;2023-04-22T02:43:42;96914.19;;;14.47;77.71
21980;BME280;11154;48.558;9.234;2023-04-22T02:45:46;96913.97;;;14.43;77.29
21980;BME280;11154;48.558;9.234;2023-04-22T02:47:48;96917.88;;;14.40;77.82
21980;BME280;11154;48.558;9.234;2023-04-22T02:49:50;96913.97;;;14.36;78.14
21980;BME280;11154;48.558;9.234;2023-04-22T02:51:51;96909.66;;;14.42;78.16
21980;BME280;11154;48.558;9.234;2023-04-22T02:53:53;96900.59;;;14.43;77.67
21980;BME280;11154;48.558;9.234;2023-04-22T02:55:55;96911.28;;;14.43;77.32
21980;BME280;11154;48.558;9.234;2023-04-22T02:57:57;96908.81;;;14.41;76.95
21980;BME280;11154;48.558;9.234;2023-04-22T02:59:59;96899.78;;;14.42;76.98
21980;BME280;11154;48.558;9.234;2023-04-22T03:02:02;96907.81;;;14.42;77.22
21980;BME280;11154;48.558;9.234;2023-04-22T03:04:04;96913.34;;;14.41;76.72
21980;BME280;11154;48.558;9.234;2023-04-22T03:06:06;96904.50;;;14.40;77.21
21980;BME280;11154;48.558;9.234;2023-04-22T03:08:07;96902.25;;;14.43;77.32
21980;BME280;11154;48.558;9.234;2023-04-22T03:10:10;96910.06;;;14.45;77.34
21980;BME280;11154;48.558;9.234;2023-04-22T03:12:11;96905.13;;;14.42;76.96
21980;BME280;11154;48.558;9.234;2023-04-22T03:14:13;96908.81;;;14.41;76.75
21980;BME280;11154;48.558;9.234;2023-04-22T03:16:15;96912.09;;;14.37;77.27
21980;BME280;11154;48.558;9.234;2023-04-22T03:18:19;96911.66;;;14.33;77.44
21980;BME280;11154;48.558;9.234;2023-04-22T03:20:20;96912.25;;;14.29;77.39
21980;BME280;11154;48.558;9.234;2023-04-22T03:22:22;96913.06;;;14.23;77.40
21980;BME280;11154;48.558;9.234;2023-04-22T03:24:23;96917.97;;;14.19;77.74
21980;BME280;11154;48.558;9.234;2023-04-22T03:26:25;96917.53;;;14.16;77.62
21980;BME280;11154;48.558;9.234;2023-04-22T03:28:27;96916.09;;;14.13;77.70
21980;BME280;11154;48.558;9.234;2023-04-22T03:30:28;96910.31;;;14.10;77.63
21980;BME280;11154;48.558;9.234;2023-04-22T03:32:30;96906.38;;;14.06;78.39
21980;BME280;11154;48.558;9.234;2023-04-22T03:34:33;96899.75;;;14.02;78.45
21980;BME280;11154;48.558;9.234;2023-04-22T03:36:35;96905.06;;;13.95;78.55
21980;BME280;11154;48.558;9.234;2023-04-22T03:38:36;96906.88;;;13.88;79.34
21980;BME280;11154;48.558;9.234;2023-04-22T03:40:38;96910.19;;;13.90;79.48
21980;BME280;11154;48.558;9.234;2023-04-22T03:42:40;96905.28;;;13.94;79.80
21980;BME280;11154;48.558;9.234;2023-04-22T03:44:41;96920.09;;;13.96;79.83
21980;BME280;11154;48.558;9.234;2023-04-22T03:46:43;96918.22;;;13.97;79.24
21980;BME280;11154;48.558;9.234;2023-04-22T03:48:45;96929.13;;;13.95;79.81
21980;BME280;11154;48.558;9.234;2023-04-22T03:50:48;96930.16;;;13.94;80.12
21980;BME280;11154;48.558;9.234;2023-04-22T03:52:49;96925.81;;;13.93;79.94
21980;BME280;11154;48.558;9.234;2023-04-22T03:54:51;96926.84;;;13.92;80.51
21980;BME280;11154;48.558;9.234;2023-04-22T03:56:53;96929.91;;;13.89;80.43
21980;BME280;11154;48.558;9.234;2023-04-22T03:58:54;96924.56;;;13.89;80.80
21980;BME280;11154;48.558;9.234;2023-04-22T04:00:56;96930.13;;;13.88;80.86
21980;BME280;11154;48.558;9.234;2023-04-22T04:02:58;96932.78;;;13.88;81.30
21980;BME280;11154;48.558;9.234;2023-04-22T04:04:59;96931.94;;;13.87;81.10
21980;BME280;11154;48.558;9.234;2023-04-22T04:07:03;96925.78;;;13.87;81.18
21980;BME280;11154;48.558;9.234;2023-04-22T04:09:04;96927.63;;;13.86;81.18
21980;BME280;11154;48.558;9.234;2023-04-22T04:11:08;96925.34;;;13.83;81.35
21980;BME280;11154;48.558;9.234;2023-04-22T04:13:09;96931.06;;;13.80;81.22
21980;BME280;11154;48.558;9.234;2023-04-22T04:15:11;96920.38;;;13.80;81.12
21980;BME280;11154;48.558;9.234;2023-04-22T04:17:13;96920.59;;;13.79;81.13
21980;BME280;11154;48.558;9.234;2023-04-22T04:19:14;96917.91;;;13.79;80.78
21980;BME280;11154;48.558;9.234;2023-04-22T04:21:16;96912.97;;;13.76;80.73
21980;BME280;11154;48.558;9.234;2023-04-22T04:23:19;96924.69;;;13.75;80.87
21980;BME280;11154;48.558;9.234;2023-04-22T04:25:21;96924.03;;;13.73;80.77
21980;BME280;11154;48.558;9.234;2023-04-22T04:27:23;96923.59;;;13.69;80.88
21980;BME280;11154;48.558;9.234;2023-04-22T04:29:24;96923.22;;;13.72;80.68
21980;BME280;11154;48.558;9.234;2023-04-22T04:31:26;96926.28;;;13.69;80.77
21980;BME280;11154;48.558;9.234;2023-04-22T04:33:28;96919.47;;;13.67;80.87
21980;BME280;11154;48.558;9.234;2023-04-22T04:35:31;96918.69;;;13.67;81.05
21980;BME280;11154;48.558;9.234;2023-04-22T04:37:33;96920.72;;;13.65;81.41
21980;BME280;11154;48.558;9.234;2023-04-22T04:39:37;96919.25;;;13.62;81.20
21980;BME280;11154;48.558;9.234;2023-04-22T04:41:39;96918.59;;;13.60;81.26
21980;BME280;11154;48.558;9.234;2023-04-22T04:43:40;96921.94;;;13.62;81.30
21980;BME280;11154;48.558;9.234;2023-04-22T04:45:45;96919.84;;;13.64;81.28
21980;BME280;11154;48.558;9.234;2023-04-22T04:47:47;96919.69;;;13.66;81.42
21980;BME280;11154;48.558;9.234;2023-04-22T04:49:52;96918.47;;;13.68;81.52
21980;BME280;11154;48.558;9.234;2023-04-22T04:51:53;96920.13;;;13.69;80.72
21980;BME280;11154;48.558;9.234;2023-04-22T04:53:55;96919.94;;;13.70;81.31
21980;BME280;11154;48.558;9.234;2023-04-22T04:55:58;96932.06;;;13.73;80.54
21980;BME280;11154;48.558;9.234;2023-04-22T04:58:00;96924.03;;;13.73;80.77
21980;BME280;11154;48.558;9.234;2023-04-22T05:00:02;96931.84;;;13.74;80.72
21980;BME280;11154;48.558;9.234;2023-04-22T05:02:04;96924.03;;;13.73;80.59
21980;BME280;11154;48.558;9.234;2023-04-22T05:04:05;96927.34;;;13.75;80.66
21980;BME280;11154;48.558;9.234;2023-04-22T05:06:07;96925.91;;;13.72;80.46
21980;BME280;11154;48.558;9.234;2023-04-22T05:08:09;96920.56;;;13.72;80.40
21980;BME280;11154;48.558;9.234;2023-04-22T05:10:11;96916.22;;;13.71;80.82
21980;BME280;11154;48.558;9.234;2023-04-22T05:12:14;96910.69;;;13.73;80.98
21980;BME280;11154;48.558;9.234;2023-04-22T05:14:16;96916.66;;;13.75;81.12
21980;BME280;11154;48.558;9.234;2023-04-22T05:16:18;96917.09;;;13.78;80.94
21980;BME280;11154;48.558;9.234;2023-04-22T05:18:20;96912.56;;;13.79;80.74
21980;BME280;11154;48.558;9.234;2023-04-22T05:20:21;96917.09;;;13.78;80.84
21980;BME280;11154;48.558;9.234;2023-04-22T05:22:23;96922.03;;;13.81;81.18
21980;BME280;11154;48.558;9.234;2023-04-22T05:24:25;96914.66;;;13.83;81.33
21980;BME280;11154;48.558;9.234;2023-04-22T05:26:26;96926.00;;;13.85;81.20
21980;BME280;11154;48.558;9.234;2023-04-22T05:28:29;96920.25;;;13.88;81.23
21980;BME280;11154;48.558;9.234;2023-04-22T05:30:31;96925.38;;;13.90;81.13
21980;BME280;11154;48.558;9.234;2023-04-22T05:32:33;96922.53;;;13.91;81.62
21980;BME280;11154;48.558;9.234;2023-04-22T05:34:34;96930.28;;;13.86;81.49
21980;BME280;11154;48.558;9.234;2023-04-22T05:36:36;96930.69;;;13.83;81.73
21980;BME280;11154;48.558;9.234;2023-04-22T05:38:38;96922.88;;;13.82;81.28
21980;BME280;11154;48.558;9.234;2023-04-22T05:40:40;96930.69;;;13.83;81.04
21980;BME280;11154;48.558;9.234;2023-04-22T05:42:41;96931.34;;;13.85;81.98
21980;BME280;11154;48.558;9.234;2023-04-22T05:44:44;96932.34;;;13.84;81.94
21980;BME280;11154;48.558;9.234;2023-04-22T05:46:46;96928.66;;;13.85;81.99
21980;BME280;11154;48.558;9.234;2023-04-22T05:48:48;96926.81;;;13.86;81.83
21980;BME280;11154;48.558;9.234;2023-04-22T05:50:50;96937.28;;;13.87;82.13
21980;BME280;11154;48.558;9.234;2023-04-22T05:52:53;96932.16;;;13.86;81.95
21980;BME280;11154;48.558;9.234;2023-04-22T05:54:55;96932.34;;;13.84;81.76
21980;BME280;11154;48.558;9.234;2023-04-22T05:56:56;96941.97;;;13.79;80.89
21980;BME280;11154;48.558;9.234;2023-04-22T05:58:58;96936.81;;;13.77;80.32
21980;BME280;11154;48.558;9.234;2023-04-22T06:01:01;96938.84;;;13.75;80.11
21980;BME280;11154;48.558;9.234;2023-04-22T06:03:03;96934.16;;;13.77;80.10
21980;BME280;11154;48.558;9.234;2023-04-22T06:05:05;96935.59;;;13.80;80.28
21980;BME280;11154;48.558;9.234;2023-04-22T06:07:07;96937.94;;;13.89;81.19
21980;BME280;11154;48.558;9.234;2023-04-22T06:09:09;96943.75;;;13.99;83.27
21980;BME280;11154;48.558;9.234;2023-04-22T06:11:11;96940.25;;;13.99;82.30
21980;BME280;11154;48.558;9.234;2023-04-22T06:13:12;96944.38;;;14.01;82.06
21980;BME280;11154;48.558;9.234;2023-04-22T06:15:14;96941.50;;;14.03;81.51
21980;BME280;11154;48.558;9.234;2023-04-22T06:17:17;96945.00;;;14.03;81.16
21980;BME280;11154;48.558;9.234;2023-04-22T06:19:19;96948.13;;;14.07;81.03
21980;BME280;11154;48.558;9.234;2023-04-22T06:21:20;96934.81;;;14.13;81.37
21980;BME280;11154;48.558;9.234;2023-04-22T06:23:22;96934.03;;;14.19;81.54
21980;BME280;11154;48.558;9.234;2023-04-22T06:25:24;96936.53;;;14.27;82.12
21980;BME280;11154;48.558;9.234;2023-04-22T06:27:25;96929.75;;;14.31;81.74
21980;BME280;11154;48.558;9.234;2023-04-22T06:29:27;96931.47;;;14.39;82.38
21980;BME280;11154;48.558;9.234;2023-04-22T06:31:29;96935.16;;;14.44;82.51
21980;BME280;11154;48.558;9.234;2023-04-22T06:33:32;96936.44;;;14.48;82.99
21980;BME280;11154;48.558;9.234;2023-04-22T06:35:34;96945.50;;;14.53;83.39
21980;BME280;11154;48.558;9.234;2023-04-22T06:37:35;96948.00;;;14.55;83.76
21980;BME280;11154;48.558;9.234;2023-04-22T06:39:37;96941.59;;;14.56;83.62
21980;BME280;11154;48.558;9.234;2023-04-22T06:41:39;96939.56;;;14.58;83.05
21980;BME280;11154;48.558;9.234;2023-04-22T06:43:43;96944.09;;;14.57;82.24
21980;BME280;11154;48.558;9.234;2023-04-22T06:45:46;96940.19;;;14.60;81.54
21980;BME280;11154;48.558;9.234;2023-04-22T06:47:48;96933.41;;;14.64;81.84
21980;BME280;11154;48.558;9.234;2023-04-22T06:49:51;96938.97;;;14.69;82.53
21980;BME280;11154;48.558;9.234;2023-04-22T06:51:53;96939.38;;;14.72;81.47
21980;BME280;11154;48.558;9.234;2023-04-22T06:53:55;96948.09;;;14.81;81.67
21980;BME280;11154;48.558;9.234;2023-04-22T06:55:57;96941.50;;;14.90;82.44
21980;BME280;11154;48.558;9.234;2023-04-22T06:57:59;96942.78;;;14.94;82.19
21980;BME280;11154;48.558;9.234;2023-04-22T07:00:00;96944.00;;;14.98;82.30
21980;BME280;11154;48.558;9.234;2023-04-22T07:02:03;96947.53;;;15.05;83.56
21980;BME280;11154;48.558;9.234;2023-04-22T07:04:05;96944.25;;;15.09;83.38
21980;BME280;11154;48.558;9.234;2023-04-22T07:06:09;96945.25;;;15.14;83.68
21980;BME280;11154;48.558;9.234;2023-04-22T07:08:10;96941.56;;;15.15;84.46
21980;BME280;11154;48.558;9.234;2023-04-22T07:10:12;96937.88;;;15.16;84.31
21980;BME280;11154;48.558;9.234;2023-04-22T07:12:14;96940.75;;;15.21;83.48
21980;BME280;11154;48.558;9.234;2023-04-22T07:14:16;96932.94;;;15.20;82.56
21980;BME280;11154;48.558;9.234;2023-04-22T07:16:18;96938.28;;;15.20;82.57
21980;BME280;11154;48.558;9.234;2023-04-22T07:18:19;96935.84;;;15.25;82.92
21980;BME280;11154;48.558;9.234;2023-04-22T07:20:21;96934.81;;;15.26;82.38
21980;BME280;11154;48.558;9.234;2023-04-22T07:22:24;96930.09;;;15.41;83.11
21980;BME280;11154;48.558;9.234;2023-04-22T07:24:26;96921.84;;;15.42;81.57
21980;BME280;11154;48.558;9.234;2023-04-22T07:26:27;96921.22;;;15.40;80.15
21980;BME280;11154;48.558;9.234;2023-04-22T07:28:31;96918.13;;;15.43;80.83
21980;BME280;11154;48.558;9.234;2023-04-22T07:30:32;96917.31;;;15.49;80.89
21980;BME280;11154;48.558;9.234;2023-04-22T07:32:34;96914.44;;;15.57;81.07
21980;BME280;11154;48.558;9.234;2023-04-22T07:34:36;96916.69;;;15.60;79.84
21980;BME280;11154;48.558;9.234;2023-04-22T07:36:37;96916.88;;;15.65;80.45
21980;BME280;11154;48.558;9.234;2023-04-22T07:38:40;96911.53;;;15.65;82.13
21980;BME280;11154;48.558;9.234;2023-04-22T07:40:42;96915.03;;;15.66;82.75
21980;BME280;11154;48.558;9.234;2023-04-22T07:42:44;96918.75;;;15.65;83.32
21980;BME280;11154;48.558;9.234;2023-04-22T07:44:45;96920.59;;;15.64;83.01
21980;BME280;11154;48.558;9.234;2023-04-22T07:46:48;96908.25;;;15.63;82.34
21980;BME280;11154;48.558;9.234;2023-04-22T07:48:50;96912.75;;;15.63;80.77
21980;BME280;11154;48.558;9.234;2023-04-22T07:50:51;96913.19;;;15.66;81.97
21980;BME280;11154;48.558;9.234;2023-04-22T07:52:53;96920.81;;;15.69;82.13
21980;BME280;11154;48.558;9.234;2023-04-22T07:54:56;96918.94;;;15.70;81.83
21980;BME280;11154;48.558;9.234;2023-04-22T07:56:58;96932.38;;;15.76;82.07
21980;BME280;11154;48.558;9.234;2023-04-22T07:59:01;96938.94;;;15.80;81.82
21980;BME280;11154;48.558;9.234;2023-04-22T08:01:03;96937.09;;;15.87;82.22
21980;BME280;11154;48.558;9.234;2023-04-22T08:03:04;96946.56;;;15.89;81.55
21980;BME280;11154;48.558;9.234;2023-04-22T08:05:07;96940.16;;;15.97;81.77
21980;BME280;11154;48.558;9.234;2023-04-22T08:07:08;96942.44;;;16.00;81.42
21980;BME280;11154;48.558;9.234;2023-04-22T08:09:10;96939.53;;;16.08;82.22
21980;BME280;11154;48.558;9.234;2023-04-22T08:11:13;96933.31;;;16.14;82.33
21980;BME280;11154;48.558;9.234;2023-04-22T08:13:15;96941.53;;;16.25;83.78
21980;BME280;11154;48.558;9.234;2023-04-22T08:15:16;96925.88;;;16.29;82.17
21980;BME280;11154;48.558;9.234;2023-04-22T08:17:18;96929.81;;;16.33;80.09
21980;BME280;11154;48.558;9.234;2023-04-22T08:19:21;96930.78;;;16.38;80.41
21980;BME280;11154;48.558;9.234;2023-04-22T08:21:22;96931.59;;;16.45;80.07
21980;BME280;11154;48.558;9.234;2023-04-22T08:23:24;96934.69;;;16.49;81.03
21980;BME280;11154;48.558;9.234;2023-04-22T08:25:26;96941.28;;;16.53;80.92
21980;BME280;11154;48.558;9.234;2023-04-22T08:27:30;96937.75;;;16.59;80.51
21980;BME280;11154;48.558;9.234;2023-04-22T08:29:32;96933.78;;;16.67;81.56
21980;BME280;11154;48.558;9.234;2023-04-22T08:31:33;96941.44;;;16.70;80.16
21980;BME280;11154;48.558;9.234;2023-04-22T08:33:35;96925.25;;;16.77;79.63
21980;BME280;11154;48.558;9.234;2023-04-22T08:35:37;96925.66;;;16.87;79.38
21980;BME280;11154;48.558;9.234;2023-04-22T08:37:39;96926.63;;;16.92;78.40
21980;BME280;11154;48.558;9.234;2023-04-22T08:39:41;96928.66;;;17.03;76.87
21980;BME280;11154;48.558;9.234;2023-04-22T08:41:42;96928.38;;;17.11;73.76
21980;BME280;11154;48.558;9.234;2023-04-22T08:43:47;96920.50;;;17.16;75.69
21980;BME280;11154;48.558;9.234;2023-04-22T08:45:49;96919.66;;;17.22;76.15
21980;BME280;11154;48.558;9.234;2023-04-22T08:47:52;96920.66;;;17.28;76.44
21980;BME280;11154;48.558;9.234;2023-04-22T08:49:54;96921.88;;;17.32;75.84
21980;BME280;11154;48.558;9.234;2023-04-22T08:51:56;96913.75;;;17.38;75.36
21980;BME280;11154;48.558;9.234;2023-04-22T08:53:58;96916.59;;;17.43;75.04
21980;BME280;11154;48.558;9.234;2023-04-22T08:56:00;96913.28;;;17.47;74.25
21980;BME280;11154;48.558;9.234;2023-04-22T08:58:03;96908.91;;;17.53;72.57
21980;BME280;11154;48.558;9.234;2023-04-22T09:00:08;96908.00;;;17.59;72.46
21980;BME280;11154;48.558;9.234;2023-04-22T09:02:13;96901.75;;;17.65;73.80
21980;BME280;11154;48.558;9.234;2023-04-22T09:04:17;96906.69;;;17.68;73.08
21980;BME280;11154;48.558;9.234;2023-04-22T09:06:19;96898.84;;;17.66;71.37
21980;BME280;11154;48.558;9.234;2023-04-22T09:08:22;96903.72;;;17.76;73.52
21980;BME280;11154;48.558;9.234;2023-04-22T09:10:24;96902.41;;;17.85;74.32
21980;BME280;11154;48.558;9.234;2023-04-22T09:12:26;96899.88;;;17.90;71.84
21980;BME280;11154;48.558;9.234;2023-04-22T09:14:28;96897.19;;;17.90;68.87
21980;BME280;11154;48.558;9.234;2023-04-22T09:16:32;96906.63;;;17.99;71.27
21980;BME280;11154;48.558;9.234;2023-04-22T09:18:39;96893.84;;;18.12;70.65
21980;BME280;11154;48.558;9.234;2023-04-22T09:20:41;96900.81;;;18.19;68.80
21980;BME280;11154;48.558;9.234;2023-04-22T09:22:44;96902.63;;;18.25;68.46
21980;BME280;11154;48.558;9.234;2023-04-22T09:24:48;96895.44;;;18.37;68.02
21980;BME280;11154;48.558;9.234;2023-04-22T09:26:50;96895.75;;;18.47;67.68
21980;BME280;11154;48.558;9.234;2023-04-22T09:28:52;96900.28;;;18.47;65.79
21980;BME280;11154;48.558;9.234;2023-04-22T09:30:59;96897.25;;;18.43;63.64
21980;BME280;11154;48.558;9.234;2023-04-22T09:33:04;96895.28;;;18.50;65.23
21980;BME280;11154;48.558;9.234;2023-04-22T09:35:06;96888.31;;;18.61;62.75
21980;BME280;11154;48.558;9.234;2023-04-22T09:37:08;96887.03;;;18.63;64.09
21980;BME280;11154;48.558;9.234;2023-04-22T09:39:12;96884.56;;;18.62;63.15
21980;BME280;11154;48.558;9.234;2023-04-22T09:41:14;96885.41;;;18.62;62.54
21980;BME280;11154;48.558;9.234;2023-04-22T09:43:18;96892.34;;;18.70;63.41
21980;BME280;11154;48.558;9.234;2023-04-22T09:45:30;96885.38;;;18.80;67.22
21980;BME280;11154;48.558;9.234;2023-04-22T09:47:34;96885.03;;;18.88;67.23
21980;BME280;11154;48.558;9.234;2023-04-22T09:49:37;96883.06;;;18.95;62.45
21980;BME280;11154;48.558;9.234;2023-04-22T09:51:40;96886.31;;;19.03;62.36
21980;BME280;11154;48.558;9.234;2023-04-22T09:53:42;96885.47;;;19.03;56.33
21980;BME280;11154;48.558;9.234;2023-04-22T09:55:45;96875.44;;;19.10;57.79
21980;BME280;11154;48.558;9.234;2023-04-22T09:57:52;96869.13;;;19.16;54.68
21980;BME280;11154;48.558;9.234;2023-04-22T09:59:57;96865.63;;;19.27;59.52
21980;BME280;11154;48.558;9.234;2023-04-22T10:02:01;96866.03;;;19.42;61.66
21980;BME280;11154;48.558;9.234;2023-04-22T10:04:03;96857.94;;;19.42;56.62
21980;BME280;11154;48.558;9.234;2023-04-22T10:06:07;96864.03;;;19.49;54.04
21980;BME280;11154;48.558;9.234;2023-04-22T10:08:09;96863.47;;;19.58;58.40
21980;BME280;11154;48.558;9.234;2023-04-22T10:10:11;96861.56;;;19.58;54.10
21980;BME280;11154;48.558;9.234;2023-04-22T10:12:13;96863.91;;;19.55;51.61
21980;BME280;11154;48.558;9.234;2023-04-22T10:14:14;96862.16;;;19.60;55.01
21980;BME280;11154;48.558;9.234;2023-04-22T10:16:17;96868.16;;;19.74;65.05
21980;BME280;11154;48.558;9.234;2023-04-22T10:18:21;96865.59;;;19.79;62.47
21980;BME280;11154;48.558;9.234;2023-04-22T10:20:25;96863.94;;;19.78;56.75
21980;BME280;11154;48.558;9.234;2023-04-22T10:22:30;96861.50;;;19.76;54.89
21980;BME280;11154;48.558;9.234;2023-04-22T10:24:34;96858.78;;;19.88;60.88
21980;BME280;11154;48.558;9.234;2023-04-22T10:26:41;96853.88;;;19.96;60.98
21980;BME280;11154;48.558;9.234;2023-04-22T10:28:43;96853.31;;;19.94;54.74
21980;BME280;11154;48.558;9.234;2023-04-22T10:30:45;96838.97;;;19.94;54.90
21980;BME280;11154;48.558;9.234;2023-04-22T10:32:47;96848.97;;;20.05;57.11
21980;BME280;11154;48.558;9.234;2023-04-22T10:34:49;96846.13;;;20.11;55.52
21980;BME280;11154;48.558;9.234;2023-04-22T10:36:56;96834.13;;;20.19;57.69
21980;BME280;11154;48.558;9.234;2023-04-22T10:39:15;96832.00;;;20.32;59.04
21980;BME280;11154;48.558;9.234;2023-04-22T10:41:22;96834.47;;;20.22;51.99
21980;BME280;11154;48.558;9.234;2023-04-22T10:43:42;96829.28;;;20.32;51.86
21980;BME280;11154;48.558;9.234;2023-04-22T10:45:44;96831.63;;;20.40;57.40
21980;BME280;11154;48.558;9.234;2023-04-22T10:47:45;96822.00;;;20.32;52.93